createdAt,value
2023-04-14T00:00:54.125Z,5.45
2023-04-14T00:03:21.026Z,5.42
2023-04-14T00:05:47.662Z,5.47
2023-04-14T00:08:14.122Z,5.40
2023-04-14T00:10:40.716Z,5.34
2023-04-14T00:13:07.297Z,5.30
2023-04-14T00:15:33.833Z,5.42
2023-04-14T00:18:00.439Z,5.34
2023-04-14T00:20:27.024Z,5.38
2023-04-14T00:22:53.470Z,5.36
2023-04-14T00:25:20.001Z,5.44
2023-04-14T00:27:46.505Z,5.47
2023-04-14T00:30:14.028Z,5.42
2023-04-14T00:32:40.526Z,5.41
2023-04-14T00:35:07.362Z,5.48
2023-04-14T00:37:33.852Z,5.45
2023-04-14T00:40:00.304Z,5.46
2023-04-14T00:42:27.321Z,5.44
2023-04-14T00:44:53.816Z,5.41
2023-04-14T00:47:22.990Z,5.38
2023-04-14T00:49:50.117Z,5.43
2023-04-14T00:52:16.784Z,5.40
2023-04-14T00:54:43.418Z,5.43
2023-04-14T00:57:09.892Z,5.45
2023-04-14T00:59:37.202Z,5.45
2023-04-14T01:02:03.844Z,5.47
2023-04-14T01:04:40.775Z,5.48
2023-04-14T01:07:28.500Z,5.47
2023-04-14T01:09:57.235Z,5.48
2023-04-14T01:12:48.273Z,5.45
2023-04-14T01:15:32.646Z,5.49
2023-04-14T01:18:12.336Z,5.50
2023-04-14T01:20:44.934Z,5.47
2023-04-14T01:23:16.094Z,5.51
2023-04-14T01:26:20.082Z,5.47
2023-04-14T01:29:08.223Z,5.46
2023-04-14T01:31:41.274Z,5.52
2023-04-14T01:34:29.412Z,5.53
2023-04-14T01:37:06.422Z,5.51
2023-04-14T01:39:41.217Z,5.51
2023-04-14T01:42:13.871Z,5.52
2023-04-14T01:44:42.040Z,5.53
2023-04-14T01:47:12.921Z,5.53
2023-04-14T01:49:40.499Z,5.55
2023-04-14T01:52:12.903Z,5.58
2023-04-14T01:54:41.455Z,5.61
2023-04-14T01:57:10.524Z,5.55
2023-04-14T01:59:38.721Z,5.53
2023-04-14T02:02:08.012Z,5.53
2023-04-14T02:04:36.967Z,5.52
2023-04-14T02:07:06.268Z,5.57
2023-04-14T02:09:34.091Z,5.55
2023-04-14T02:12:01.335Z,5.57
2023-04-14T02:14:29.464Z,5.52
2023-04-14T02:16:59.092Z,5.59
2023-04-14T02:19:26.963Z,5.58
2023-04-14T02:21:56.750Z,5.55
2023-04-14T02:24:23.807Z,5.49
2023-04-14T02:26:58.676Z,5.52
2023-04-14T02:29:27.433Z,5.51
2023-04-14T02:32:02.690Z,5.53
2023-04-14T02:34:33.859Z,5.58
2023-04-14T02:37:08.167Z,5.61
2023-04-14T02:39:42.754Z,5.58
2023-04-14T02:42:15.832Z,5.59
2023-04-14T02:44:49.024Z,5.59
2023-04-14T02:47:37.203Z,5.60
2023-04-14T02:50:07.381Z,5.62
2023-04-14T02:52:34.638Z,5.64
2023-04-14T02:55:03.493Z,5.60
2023-04-14T02:57:30.838Z,5.64
2023-04-14T02:59:58.892Z,5.63
2023-04-14T03:02:25.689Z,5.64
2023-04-14T03:04:53.448Z,5.62
2023-04-14T03:07:21.803Z,5.61
2023-04-14T03:09:50.490Z,5.62
2023-04-14T03:12:18.644Z,5.57
2023-04-14T03:14:45.404Z,5.59
2023-04-14T03:17:14.734Z,5.53
2023-04-14T03:19:42.455Z,5.57
2023-04-14T03:22:10.634Z,5.59
2023-04-14T03:24:38.919Z,5.52
2023-04-14T03:27:19.044Z,5.51
2023-04-14T03:29:48.589Z,5.52
2023-04-14T03:32:17.837Z,5.53
2023-04-14T03:34:48.328Z,5.52
2023-04-14T03:37:18.302Z,5.59
2023-04-14T03:39:50.658Z,5.57
2023-04-14T03:42:19.994Z,5.51
2023-04-14T03:44:53.091Z,5.51
2023-04-14T03:47:23.467Z,5.50
2023-04-14T03:49:56.238Z,5.57
2023-04-14T03:52:24.855Z,5.44
2023-04-14T03:54:54.934Z,5.22
2023-04-14T03:57:23.338Z,5.08
2023-04-14T03:59:51.092Z,4.91
2023-04-14T04:02:19.204Z,4.89
2023-04-14T04:04:47.029Z,4.82
2023-04-14T04:07:14.688Z,4.77
2023-04-14T04:09:43.228Z,4.69
2023-04-14T04:12:13.194Z,4.59
2023-04-14T04:14:40.552Z,4.57
2023-04-14T04:17:09.392Z,4.52
2023-04-14T04:19:37.850Z,4.51
2023-04-14T04:22:05.591Z,4.49
2023-04-14T04:24:37.663Z,4.51
2023-04-14T04:27:09.895Z,4.46
2023-04-14T04:29:41.306Z,4.47
2023-04-14T04:32:07.961Z,4.49
2023-04-14T04:34:35.257Z,4.50
2023-04-14T04:37:02.326Z,4.47
2023-04-14T04:39:29.702Z,4.51
2023-04-14T04:42:06.814Z,4.56
2023-04-14T04:44:34.215Z,4.57
2023-04-14T04:47:01.253Z,4.58
2023-04-14T04:49:28.237Z,4.61
2023-04-14T04:51:56.555Z,4.59
2023-04-14T04:54:23.060Z,4.63
2023-04-14T04:56:50.060Z,4.63
2023-04-14T04:59:16.498Z,4.71
2023-04-14T05:01:42.986Z,4.75
2023-04-14T05:04:09.570Z,4.77
2023-04-14T05:06:39.694Z,4.80
2023-04-14T05:09:06.904Z,4.79
2023-04-14T05:11:33.932Z,4.87
2023-04-14T05:14:01.386Z,4.90
2023-04-14T05:16:28.783Z,4.91
2023-04-14T05:18:55.532Z,4.90
2023-04-14T05:21:22.599Z,4.89
2023-04-14T05:23:49.220Z,4.93
2023-04-14T05:28:46.208Z,4.96
2023-04-14T05:31:12.902Z,4.93
2023-04-14T05:33:40.191Z,5.01
2023-04-14T05:36:09.666Z,4.95
2023-04-14T05:38:43.219Z,4.96
2023-04-14T05:41:09.776Z,4.98
2023-04-14T05:43:37.284Z,5.03
2023-04-14T05:46:04.161Z,5.10
2023-04-14T05:48:33.113Z,5.14
2023-04-14T05:50:59.795Z,5.15
2023-04-14T05:53:27.475Z,5.11
2023-04-14T05:55:54.337Z,5.06
2023-04-14T05:58:21.600Z,5.08
2023-04-14T06:00:48.091Z,5.07
2023-04-14T06:03:16.390Z,5.12
2023-04-14T06:05:43.216Z,5.12
2023-04-14T06:08:09.653Z,5.12
2023-04-14T06:10:36.347Z,5.18
2023-04-14T06:13:04.067Z,5.18
2023-04-14T06:15:31.121Z,5.23
2023-04-14T06:17:57.684Z,5.32
2023-04-14T06:20:24.364Z,5.34
2023-04-14T06:22:50.898Z,5.38
2023-04-14T06:25:17.417Z,5.35
2023-04-14T06:27:43.961Z,5.39
2023-04-14T06:30:10.845Z,5.39
2023-04-14T06:32:37.555Z,5.42
2023-04-14T06:35:05.105Z,5.45
2023-04-14T06:37:32.320Z,5.39
2023-04-14T06:39:58.913Z,5.39
2023-04-14T06:42:25.722Z,5.60
2023-04-14T06:44:52.372Z,5.51
2023-04-14T06:47:20.165Z,5.48
2023-04-14T06:49:46.677Z,5.47
2023-04-14T06:52:13.270Z,5.43
2023-04-14T06:54:39.849Z,5.46
2023-04-14T06:57:06.318Z,5.48
2023-04-14T06:59:32.836Z,5.53
2023-04-14T07:01:59.770Z,5.63
2023-04-14T07:04:26.656Z,5.59
2023-04-14T07:06:53.239Z,5.54
2023-04-14T07:09:20.813Z,5.58
2023-04-14T07:11:47.387Z,5.65
2023-04-14T07:14:14.072Z,5.62
2023-04-14T07:16:40.779Z,5.72
2023-04-14T07:19:07.732Z,5.72
2023-04-14T07:21:34.680Z,5.76
2023-04-14T07:24:01.576Z,5.83
2023-04-14T07:26:28.395Z,5.92
2023-04-14T07:28:55.661Z,5.97
2023-04-14T07:31:22.454Z,6.06
2023-04-14T07:33:49.350Z,6.09
2023-04-14T07:36:15.839Z,6.11
2023-04-14T07:38:43.710Z,6.17
2023-04-14T07:41:10.185Z,6.18
2023-04-14T07:43:36.902Z,6.16
2023-04-14T07:46:05.262Z,5.87
2023-04-14T07:48:33.832Z,5.85
2023-04-14T07:51:00.429Z,5.72
2023-04-14T07:53:27.388Z,5.68
2023-04-14T07:55:53.877Z,5.61
2023-04-14T07:58:21.614Z,5.62
2023-04-14T08:00:50.035Z,5.41
2023-04-14T08:03:17.232Z,5.37
2023-04-14T08:05:44.136Z,5.32
2023-04-14T08:08:10.791Z,5.28
2023-04-14T08:10:41.886Z,5.19
2023-04-14T08:13:08.798Z,5.06
2023-04-14T08:15:35.707Z,5.09
2023-04-14T08:18:02.365Z,5.00
2023-04-14T08:20:29.210Z,4.98
2023-04-14T08:22:57.289Z,4.98
2023-04-14T08:25:24.120Z,4.99
2023-04-14T08:27:51.216Z,4.90
2023-04-14T08:30:17.734Z,4.90
2023-04-14T08:32:44.238Z,4.87
2023-04-14T08:35:41.015Z,4.94
2023-04-14T08:37:57.314Z,4.90
2023-04-14T08:40:29.049Z,4.88
2023-04-14T08:42:57.056Z,5.02
2023-04-14T08:45:23.974Z,5.13
2023-04-14T08:47:54.465Z,5.14
2023-04-14T08:50:25.541Z,5.24
2023-04-14T08:52:56.042Z,5.26
2023-04-14T08:55:24.196Z,5.34
2023-04-14T08:57:51.249Z,5.32
2023-04-14T09:00:19.527Z,5.34
2023-04-14T09:02:47.485Z,5.35
2023-04-14T09:05:15.571Z,5.49
2023-04-14T09:07:42.783Z,5.57
2023-04-14T09:10:11.669Z,5.46
2023-04-14T09:12:42.252Z,5.40
2023-04-14T09:15:09.499Z,5.36
2023-04-14T09:17:36.978Z,5.37
2023-04-14T09:20:37.780Z,5.42
2023-04-14T09:22:51.243Z,5.39
2023-04-14T09:25:19.767Z,5.31
2023-04-14T09:27:46.238Z,5.33
2023-04-14T09:30:13.234Z,5.33
2023-04-14T09:32:40.399Z,5.21
2023-04-14T09:35:07.764Z,5.24
2023-04-14T09:37:44.633Z,5.29
2023-04-14T09:40:11.972Z,5.17
2023-04-14T09:42:40.096Z,5.29
2023-04-14T09:45:08.380Z,5.42
2023-04-14T09:47:35.257Z,5.40
2023-04-14T09:50:03.936Z,5.42
2023-04-14T09:52:56.736Z,5.41
2023-04-14T09:55:23.346Z,5.45
2023-04-14T09:57:51.867Z,5.53
2023-04-14T10:00:23.980Z,5.55
2023-04-14T10:03:01.491Z,5.53
2023-04-14T10:05:32.051Z,5.35
2023-04-14T10:08:05.399Z,5.43
2023-04-14T10:10:32.733Z,5.51
2023-04-14T10:13:00.565Z,5.46
2023-04-14T10:15:27.675Z,5.44
2023-04-14T10:17:54.421Z,5.48
2023-04-14T10:20:21.066Z,5.53
2023-04-14T10:22:47.996Z,5.59
2023-04-14T10:25:15.425Z,5.61
2023-04-14T10:27:43.296Z,5.65
2023-04-14T10:30:10.220Z,5.73
2023-04-14T10:32:40.435Z,5.71
2023-04-14T10:35:10.528Z,5.83
2023-04-14T10:37:37.173Z,5.68
2023-04-14T10:40:06.904Z,5.76
2023-04-14T10:42:56.313Z,5.63
2023-04-14T10:45:22.987Z,5.60
2023-04-14T10:47:50.325Z,5.56
2023-04-14T10:50:18.600Z,5.51
2023-04-14T10:52:58.864Z,5.59
2023-04-14T10:55:27.995Z,5.55
2023-04-14T10:58:05.320Z,5.59
2023-04-14T11:00:32.363Z,5.55
2023-04-14T11:03:02.663Z,5.42
2023-04-14T11:05:32.524Z,5.34
2023-04-14T11:08:02.469Z,5.29
2023-04-14T11:10:32.599Z,5.35
2023-04-14T11:13:08.378Z,5.20
2023-04-14T11:16:02.596Z,5.21
2023-04-14T11:18:45.296Z,5.13
2023-04-14T11:21:15.577Z,5.17
2023-04-14T11:23:43.630Z,5.18
2023-04-14T11:26:12.331Z,5.16
2023-04-14T11:28:42.025Z,5.11
2023-04-14T11:31:12.121Z,5.01
2023-04-14T11:33:40.105Z,5.02
2023-04-14T11:36:09.374Z,5.08
2023-04-14T11:38:40.916Z,5.13
2023-04-14T11:41:08.329Z,5.04
2023-04-14T11:43:35.075Z,5.08
2023-04-14T11:46:05.166Z,4.95
2023-04-14T11:48:31.732Z,4.96
2023-04-14T11:51:03.331Z,5.03
2023-04-14T11:53:30.657Z,4.96
2023-04-14T11:55:57.580Z,4.99
2023-04-14T11:58:26.707Z,5.01
2023-04-14T12:00:56.248Z,4.91
2023-04-14T12:03:28.167Z,4.89
2023-04-14T12:06:03.351Z,4.94
2023-04-14T12:08:31.545Z,5.00
2023-04-14T12:10:58.948Z,5.01
2023-04-14T12:13:27.017Z,4.92
2023-04-14T12:15:54.436Z,5.00
2023-04-14T12:18:22.386Z,5.01
2023-04-14T12:20:54.674Z,4.99
2023-04-14T12:23:21.877Z,5.03
2023-04-14T12:25:52.534Z,4.96
2023-04-14T12:28:24.718Z,4.88
2023-04-14T12:30:52.990Z,4.97
2023-04-14T12:33:23.344Z,4.92
2023-04-14T12:35:53.734Z,4.93
2023-04-14T12:38:26.352Z,4.94
2023-04-14T12:40:52.921Z,4.91
2023-04-14T12:43:31.412Z,4.94
2023-04-14T12:45:58.782Z,4.90
2023-04-14T12:48:46.720Z,4.92
2023-04-14T12:51:18.667Z,4.89
2023-04-14T12:53:47.503Z,4.89
2023-04-14T12:56:27.390Z,4.91
2023-04-14T12:58:54.309Z,4.99
2023-04-14T13:01:21.794Z,4.91
2023-04-14T13:03:51.825Z,5.08
2023-04-14T13:06:22.964Z,5.01
2023-04-14T13:08:51.201Z,5.06
2023-04-14T13:11:19.553Z,5.05
2023-04-14T13:13:46.370Z,5.10
2023-04-14T13:16:16.932Z,5.24
2023-04-14T13:18:47.781Z,5.30
2023-04-14T13:21:14.860Z,5.34
2023-04-14T13:23:41.716Z,5.26
2023-04-14T13:26:08.602Z,5.21
2023-04-14T13:28:35.202Z,5.16
2023-04-14T13:31:01.696Z,5.11
2023-04-14T13:33:28.426Z,5.21
2023-04-14T13:35:56.404Z,5.13
2023-04-14T13:38:22.901Z,5.19
2023-04-14T13:40:49.413Z,5.09
2023-04-14T13:43:18.146Z,5.25
2023-04-14T13:45:44.962Z,5.20
2023-04-14T13:48:11.512Z,5.22
2023-04-14T13:50:37.986Z,5.13
2023-04-14T13:53:04.509Z,5.15
2023-04-14T13:55:31.328Z,5.12
2023-04-14T13:57:57.878Z,5.18
2023-04-14T14:00:24.526Z,5.09
2023-04-14T14:02:52.213Z,5.10
2023-04-14T14:05:18.817Z,5.01
2023-04-14T14:07:45.584Z,5.08
2023-04-14T14:10:12.358Z,4.95
2023-04-14T14:12:38.897Z,4.91
2023-04-14T14:15:06.126Z,5.00
2023-04-14T14:17:32.793Z,5.01
2023-04-14T14:19:59.662Z,4.87
2023-04-14T14:22:26.643Z,4.94
2023-04-14T14:24:58.594Z,5.04
2023-04-14T14:27:31.672Z,4.99
2023-04-14T14:29:58.200Z,5.07
2023-04-14T14:32:24.699Z,4.98
2023-04-14T14:34:51.188Z,4.95
2023-04-14T14:37:18.771Z,4.86
2023-04-14T14:39:45.380Z,4.86
2023-04-14T14:42:11.979Z,4.85
2023-04-14T14:44:38.541Z,4.89
2023-04-14T14:47:06.719Z,4.91
2023-04-14T14:49:33.390Z,4.86
2023-04-14T14:52:02.458Z,4.98
2023-04-14T14:54:28.925Z,4.97
2023-04-14T14:56:56.508Z,5.11
2023-04-14T14:59:23.036Z,4.90
2023-04-14T15:01:49.659Z,4.89
2023-04-14T15:04:16.312Z,4.91
2023-04-14T15:06:43.061Z,4.90
2023-04-14T15:09:09.568Z,4.86
2023-04-14T15:11:38.272Z,4.78
2023-04-14T15:14:04.799Z,4.77
2023-04-14T15:16:31.349Z,4.80
2023-04-14T15:18:58.035Z,4.81
2023-04-14T15:21:24.584Z,4.87
2023-04-14T15:23:51.058Z,4.82
2023-04-14T15:26:17.628Z,4.73
2023-04-14T15:28:44.100Z,4.82
2023-04-14T15:31:10.766Z,4.85
2023-04-14T15:33:37.244Z,4.78
2023-04-14T15:36:03.891Z,4.77
2023-04-14T15:38:30.410Z,4.74
2023-04-14T15:40:56.894Z,4.68
2023-04-14T15:43:23.516Z,4.73
2023-04-14T15:45:50.223Z,4.63
2023-04-14T15:48:16.723Z,4.64
2023-04-14T15:50:44.354Z,4.57
2023-04-14T15:53:11.630Z,4.56
2023-04-14T15:55:38.362Z,4.54
2023-04-14T15:58:05.446Z,4.53
2023-04-14T16:00:32.667Z,4.52
2023-04-14T16:03:00.975Z,4.51
2023-04-14T16:05:27.692Z,4.48
2023-04-14T16:07:54.216Z,4.53
2023-04-14T16:10:20.632Z,4.46
2023-04-14T16:12:48.574Z,4.45
2023-04-14T16:15:15.582Z,4.47
2023-04-14T16:17:42.404Z,4.48
2023-04-14T16:20:11.405Z,4.51
2023-04-14T16:22:38.356Z,4.45
2023-04-14T16:25:05.832Z,4.42
2023-04-14T16:27:33.028Z,4.37
2023-04-14T16:29:59.899Z,4.38
2023-04-14T16:32:27.651Z,4.42
2023-04-14T16:34:54.217Z,4.38
2023-04-14T16:37:21.105Z,4.44
2023-04-14T16:39:47.655Z,4.44
2023-04-14T16:42:18.588Z,4.38
2023-04-14T16:44:45.343Z,4.34
2023-04-14T16:47:12.051Z,4.38
2023-04-14T16:49:38.534Z,4.39
2023-04-14T16:52:05.075Z,4.41
2023-04-14T16:54:31.809Z,4.41
2023-04-14T16:56:58.306Z,4.40
2023-04-14T16:59:24.812Z,4.39
2023-04-14T17:01:51.485Z,4.37
2023-04-14T17:04:18.341Z,4.48
2023-04-14T17:06:45.996Z,4.43
2023-04-14T17:09:12.529Z,4.36
2023-04-14T17:11:42.062Z,4.36
2023-04-14T17:14:08.676Z,4.38
2023-04-14T17:16:35.251Z,4.47
2023-04-14T17:19:01.831Z,4.33
2023-04-14T17:21:28.673Z,4.39
2023-04-14T17:23:55.393Z,4.39
2023-04-14T17:26:23.623Z,4.33
2023-04-14T17:28:50.302Z,4.39
2023-04-14T17:31:17.107Z,4.40
2023-04-14T17:33:45.180Z,4.43
2023-04-14T17:36:14.672Z,4.44
2023-04-14T17:38:42.802Z,4.45
2023-04-14T17:41:11.038Z,4.40
2023-04-14T17:43:41.169Z,4.48
2023-04-14T17:46:11.784Z,4.53
2023-04-14T17:48:38.403Z,4.46
2023-04-14T17:51:05.176Z,4.49
2023-04-14T17:53:31.980Z,4.50
2023-04-14T17:55:58.483Z,4.46
2023-04-14T17:58:26.297Z,4.39
2023-04-14T18:00:53.752Z,4.33
2023-04-14T18:03:20.360Z,4.33
2023-04-14T18:05:47.065Z,4.36
2023-04-14T18:08:14.227Z,4.37
2023-04-14T18:10:41.003Z,4.32
2023-04-14T18:13:07.421Z,4.36
2023-04-14T18:15:33.870Z,4.40
2023-04-14T18:18:00.434Z,4.41
2023-04-14T18:20:27.066Z,4.40
2023-04-14T18:22:54.821Z,4.40
2023-04-14T18:25:21.633Z,4.41
2023-04-14T18:30:17.869Z,4.32
2023-04-14T18:32:44.686Z,4.31
2023-04-14T18:35:11.811Z,4.41
2023-04-14T18:37:39.814Z,4.40
2023-04-14T18:40:07.387Z,4.38
2023-04-14T18:42:35.921Z,4.32
2023-04-14T18:45:03.491Z,4.38
2023-04-14T18:47:30.311Z,4.36
2023-04-14T18:49:56.860Z,4.28
2023-04-14T18:52:23.315Z,4.32
2023-04-14T18:54:49.893Z,4.35
2023-04-14T18:57:16.456Z,4.30
2023-04-14T18:59:42.934Z,4.31
2023-04-14T19:02:13.109Z,4.31
2023-04-14T19:04:40.804Z,4.34
2023-04-14T19:07:07.285Z,4.30
2023-04-14T19:09:36.025Z,4.33
2023-04-14T19:12:02.612Z,4.32
2023-04-14T19:14:29.492Z,4.35
2023-04-14T19:16:55.911Z,4.33
2023-04-14T19:19:22.364Z,4.34
2023-04-14T19:21:48.813Z,4.29
2023-04-14T19:24:15.551Z,4.35
2023-04-14T19:26:42.058Z,4.35
2023-04-14T19:29:08.693Z,4.39
2023-04-14T19:31:35.612Z,4.37
2023-04-14T19:34:02.210Z,4.30
2023-04-14T19:36:29.308Z,4.31
2023-04-14T19:38:55.997Z,4.39
2023-04-14T19:41:22.464Z,4.31
2023-04-14T19:43:49.044Z,4.40
2023-04-14T19:46:16.630Z,4.38
2023-04-14T19:48:44.324Z,4.44
2023-04-14T19:51:11.373Z,4.41
2023-04-14T19:53:37.853Z,4.39
2023-04-14T19:56:05.658Z,4.26
2023-04-14T19:58:32.891Z,4.31
2023-04-14T20:01:00.916Z,4.51
2023-04-14T20:03:28.278Z,4.45
2023-04-14T20:05:56.717Z,4.46
2023-04-14T20:08:24.440Z,4.46
2023-04-14T20:10:53.150Z,4.30
2023-04-14T20:13:21.290Z,4.27
2023-04-14T20:15:49.227Z,4.24
2023-04-14T20:18:18.867Z,4.30
2023-04-14T20:20:46.879Z,4.29
2023-04-14T20:23:13.460Z,4.37
2023-04-14T20:25:40.213Z,4.38
2023-04-14T20:28:07.628Z,4.25
2023-04-14T20:30:34.214Z,4.28
2023-04-14T20:33:06.406Z,4.27
2023-04-14T20:35:37.297Z,4.31
2023-04-14T20:38:04.629Z,4.36
2023-04-14T20:40:31.178Z,4.32
2023-04-14T20:42:57.784Z,4.27
2023-04-14T20:45:25.279Z,4.17
2023-04-14T20:47:51.878Z,4.17
2023-04-14T20:50:18.870Z,4.22
2023-04-14T20:52:45.497Z,4.26
2023-04-14T20:55:13.455Z,4.27
2023-04-14T20:57:43.184Z,4.21
2023-04-14T21:00:15.544Z,4.23
2023-04-14T21:02:43.506Z,4.26
2023-04-14T21:05:11.378Z,4.26
2023-04-14T21:07:39.735Z,4.17
2023-04-14T21:10:08.674Z,4.18
2023-04-14T21:12:36.311Z,4.21
2023-04-14T21:15:48.212Z,4.18
2023-04-14T21:18:09.724Z,4.20
2023-04-14T21:20:36.813Z,4.25
2023-04-14T21:23:03.276Z,4.22
2023-04-14T21:25:30.201Z,4.24
2023-04-14T21:27:56.707Z,4.25
2023-04-14T21:30:23.447Z,4.32
2023-04-14T21:32:50.049Z,4.38
2023-04-14T21:35:17.041Z,4.31
2023-04-14T21:37:43.487Z,4.39
2023-04-14T21:40:11.116Z,4.36
2023-04-14T21:42:37.627Z,4.43
2023-04-14T21:45:06.296Z,4.38
2023-04-14T21:47:32.999Z,4.44
2023-04-14T21:49:59.541Z,4.39
2023-04-14T21:52:26.187Z,4.43
2023-04-14T21:54:52.695Z,4.37
2023-04-14T21:57:45.556Z,4.40
2023-04-14T22:00:13.009Z,4.31
2023-04-14T22:02:40.037Z,4.42
2023-04-14T22:05:07.224Z,4.41
2023-04-14T22:07:33.627Z,4.38
2023-04-14T22:10:00.759Z,4.40
2023-04-14T22:12:27.639Z,4.34
2023-04-14T22:14:54.062Z,4.33
2023-04-14T22:17:20.641Z,4.33
2023-04-14T22:19:47.074Z,4.35
2023-04-14T22:22:13.547Z,4.32
2023-04-14T22:24:39.950Z,4.31
2023-04-14T22:27:06.515Z,4.36
2023-04-14T22:29:32.947Z,4.35
2023-04-14T22:31:59.372Z,4.40
2023-04-14T22:34:25.860Z,4.38
2023-04-14T22:36:52.436Z,4.32
2023-04-14T22:39:19.245Z,4.31
2023-04-14T22:41:46.825Z,4.42
2023-04-14T22:44:13.458Z,4.43
2023-04-14T22:46:40.072Z,4.37
2023-04-14T22:49:06.552Z,4.40
2023-04-14T22:51:33.040Z,4.40
2023-04-14T22:53:59.612Z,4.32
2023-04-14T22:56:28.274Z,4.34
2023-04-14T22:58:57.712Z,4.42
2023-04-14T23:01:25.194Z,4.38
2023-04-14T23:03:53.186Z,4.45
2023-04-14T23:06:20.216Z,4.44
2023-04-14T23:08:51.013Z,4.41
2023-04-14T23:11:20.770Z,4.34
2023-04-14T23:13:47.839Z,4.33
2023-04-14T23:16:16.674Z,4.39
2023-04-14T23:18:43.517Z,4.38
2023-04-14T23:21:10.060Z,4.37
2023-04-14T23:23:36.651Z,4.44
2023-04-14T23:26:03.219Z,4.38
2023-04-14T23:28:29.694Z,4.34
2023-04-14T23:30:56.572Z,4.36
2023-04-14T23:33:23.018Z,4.48
2023-04-14T23:35:49.518Z,4.44
2023-04-14T23:38:17.851Z,4.49
2023-04-14T23:40:46.083Z,4.49
2023-04-14T23:43:12.536Z,4.44
2023-04-14T23:45:39.060Z,4.39
2023-04-14T23:48:06.813Z,4.47
2023-04-14T23:50:58.673Z,4.44
2023-04-14T23:53:20.112Z,4.38
2023-04-14T23:55:47.594Z,4.36
2023-04-14T23:58:26.014Z,4.47
